createdAt,value
2023-02-13T00:00:11.892Z,1035.32
2023-02-13T00:01:11.891Z,1035.32
2023-02-13T00:02:12.862Z,1035.38
2023-02-13T00:03:31.203Z,1035.34
2023-02-13T00:04:12.103Z,1035.37
2023-02-13T00:05:12.692Z,1035.37
2023-02-13T00:06:11.909Z,1035.34
2023-02-13T00:07:12.817Z,1035.36
2023-02-13T00:08:11.467Z,1035.35
2023-02-13T00:09:12.493Z,1035.37
2023-02-13T00:10:11.607Z,1035.34
2023-02-13T00:11:11.948Z,1035.42
2023-02-13T00:12:12.455Z,1035.42
2023-02-13T00:13:31.280Z,1035.36
2023-02-13T00:14:11.742Z,1035.37
2023-02-13T00:15:12.297Z,1035.35
2023-02-13T00:16:11.663Z,1035.35
2023-02-13T00:17:12.389Z,1035.39
2023-02-13T00:18:12.747Z,1035.35
2023-02-13T00:19:12.523Z,1035.35
2023-02-13T00:20:12.329Z,1035.35
2023-02-13T00:21:11.751Z,1035.36
2023-02-13T00:22:11.612Z,1035.29
2023-02-13T00:23:31.295Z,1035.28
2023-02-13T00:24:11.227Z,1035.26
2023-02-13T00:25:12.336Z,1035.27
2023-02-13T00:26:11.801Z,1035.30
2023-02-13T00:27:12.514Z,1035.24
2023-02-13T00:28:11.647Z,1035.25
2023-02-13T00:29:12.190Z,1035.20
2023-02-13T00:30:12.503Z,1035.28
2023-02-13T00:31:11.020Z,1035.22
2023-02-13T00:32:12.732Z,1035.19
2023-02-13T00:33:30.948Z,1035.17
2023-02-13T00:34:10.771Z,1035.19
2023-02-13T00:35:12.458Z,1035.17
2023-02-13T00:36:10.826Z,1035.15
2023-02-13T00:37:12.537Z,1035.16
2023-02-13T00:38:12.350Z,1035.18
2023-02-13T00:39:11.616Z,1035.12
2023-02-13T00:40:12.015Z,1035.12
2023-02-13T00:41:10.872Z,1035.18
2023-02-13T00:42:12.177Z,1035.14
2023-02-13T00:43:30.970Z,1035.16
2023-02-13T00:44:12.198Z,1035.16
2023-02-13T00:45:12.481Z,1035.12
2023-02-13T00:46:10.962Z,1035.16
2023-02-13T00:47:12.061Z,1035.12
2023-02-13T00:48:12.363Z,1035.16
2023-02-13T00:49:12.245Z,1035.14
2023-02-13T00:50:11.620Z,1035.17
2023-02-13T00:51:10.950Z,1035.16
2023-02-13T00:52:12.121Z,1035.19
2023-02-13T00:53:30.949Z,1035.20
2023-02-13T00:54:10.877Z,1035.15
2023-02-13T00:55:11.531Z,1035.17
2023-02-13T00:56:11.719Z,1035.11
2023-02-13T00:57:11.617Z,1035.13
2023-02-13T00:58:11.497Z,1035.08
2023-02-13T00:59:11.485Z,1035.07
2023-02-13T01:00:10.656Z,1035.05
2023-02-13T01:01:11.165Z,1035.09
2023-02-13T01:02:12.202Z,1035.12
2023-02-13T01:03:30.572Z,1035.06
2023-02-13T01:04:12.313Z,1035.06
2023-02-13T01:05:12.077Z,1035.06
2023-02-13T01:06:10.756Z,1035.03
2023-02-13T01:07:12.179Z,1035.09
2023-02-13T01:08:11.994Z,1035.06
2023-02-13T01:09:12.273Z,1035.06
2023-02-13T01:10:12.162Z,1035.05
2023-02-13T01:11:10.815Z,1035.06
2023-02-13T01:12:11.124Z,1035.05
2023-02-13T01:13:30.627Z,1035.08
2023-02-13T01:14:11.836Z,1035.10
2023-02-13T01:15:12.121Z,1035.08
2023-02-13T01:16:10.972Z,1035.08
2023-02-13T01:17:11.746Z,1035.10
2023-02-13T01:18:11.126Z,1035.06
2023-02-13T01:19:11.817Z,1035.07
2023-02-13T01:20:12.188Z,1035.03
2023-02-13T01:21:10.852Z,1035.05
2023-02-13T01:22:11.280Z,1035.07
2023-02-13T01:23:30.624Z,1035.07
2023-02-13T01:24:11.848Z,1035.11
2023-02-13T01:25:12.120Z,1035.15
2023-02-13T01:26:10.894Z,1035.15
2023-02-13T01:27:11.809Z,1035.12
2023-02-13T01:28:11.368Z,1035.13
2023-02-13T01:29:11.154Z,1035.12
2023-02-13T01:30:11.779Z,1035.11
2023-02-13T01:31:10.950Z,1035.06
2023-02-13T01:32:11.917Z,1035.09
2023-02-13T01:33:30.183Z,1035.08
2023-02-13T01:34:11.921Z,1035.09
2023-02-13T01:35:11.693Z,1035.12
2023-02-13T01:36:10.694Z,1035.12
2023-02-13T01:37:11.845Z,1035.02
2023-02-13T01:38:11.649Z,1035.02
2023-02-13T01:39:11.951Z,1035.01
2023-02-13T01:40:11.142Z,1034.96
2023-02-13T01:41:10.695Z,1034.99
2023-02-13T01:42:11.418Z,1034.95
2023-02-13T01:43:30.239Z,1034.93
2023-02-13T01:44:11.949Z,1034.98
2023-02-13T01:45:11.777Z,1034.97
2023-02-13T01:46:10.199Z,1035.00
2023-02-13T01:47:10.658Z,1034.93
2023-02-13T01:48:11.678Z,1034.98
2023-02-13T01:49:11.488Z,1034.99
2023-02-13T01:50:11.774Z,1034.97
2023-02-13T01:51:10.798Z,1034.95
2023-02-13T01:52:11.415Z,1034.97
2023-02-13T01:53:30.249Z,1034.95
2023-02-13T01:54:11.464Z,1034.97
2023-02-13T01:55:11.747Z,1034.91
2023-02-13T01:56:10.295Z,1034.96
2023-02-13T01:57:11.489Z,1034.96
2023-02-13T01:58:11.787Z,1034.95
2023-02-13T01:59:10.657Z,1034.98
2023-02-13T02:00:11.452Z,1035.01
2023-02-13T02:01:10.846Z,1034.97
2023-02-13T02:02:11.618Z,1034.95
2023-02-13T02:03:29.870Z,1034.94
2023-02-13T02:04:10.659Z,1034.92
2023-02-13T02:05:10.627Z,1034.92
2023-02-13T02:06:10.889Z,1034.92
2023-02-13T02:07:11.497Z,1034.92
2023-02-13T02:08:11.353Z,1034.87
2023-02-13T02:09:11.654Z,1034.90
2023-02-13T02:10:10.663Z,1034.88
2023-02-13T02:11:09.914Z,1034.90
2023-02-13T02:12:11.074Z,1034.93
2023-02-13T02:13:29.965Z,1034.92
2023-02-13T02:14:11.185Z,1034.93
2023-02-13T02:15:11.584Z,1034.93
2023-02-13T02:16:09.992Z,1034.92
2023-02-13T02:17:10.386Z,1034.91
2023-02-13T02:18:11.447Z,1034.93
2023-02-13T02:19:11.266Z,1034.90
2023-02-13T02:20:11.560Z,1034.91
2023-02-13T02:21:09.934Z,1034.91
2023-02-13T02:22:11.144Z,1034.94
2023-02-13T02:23:29.984Z,1034.92
2023-02-13T02:24:11.245Z,1034.91
2023-02-13T02:25:11.540Z,1034.96
2023-02-13T02:26:10.766Z,1034.90
2023-02-13T02:27:10.636Z,1034.88
2023-02-13T02:28:11.529Z,1034.90
2023-02-13T02:29:11.300Z,1034.89
2023-02-13T02:30:10.308Z,1034.94
2023-02-13T02:31:10.924Z,1034.94
2023-02-13T02:32:10.173Z,1034.88
2023-02-13T02:33:30.053Z,1034.92
2023-02-13T02:34:11.274Z,1034.91
2023-02-13T02:35:10.583Z,1034.94
2023-02-13T02:36:10.890Z,1034.95
2023-02-13T02:37:11.201Z,1034.90
2023-02-13T02:38:10.973Z,1034.96
2023-02-13T02:39:10.192Z,1034.94
2023-02-13T02:40:11.147Z,1034.94
2023-02-13T02:41:09.848Z,1034.88
2023-02-13T02:42:11.256Z,1034.97
2023-02-13T02:43:29.581Z,1034.98
2023-02-13T02:44:10.517Z,1034.92
2023-02-13T02:45:10.204Z,1034.97
2023-02-13T02:46:09.918Z,1034.94
2023-02-13T02:47:10.882Z,1034.92
2023-02-13T02:48:11.171Z,1034.96
2023-02-13T02:49:10.971Z,1034.93
2023-02-13T02:50:10.180Z,1034.95
2023-02-13T02:51:09.900Z,1034.99
2023-02-13T02:52:10.881Z,1035.02
2023-02-13T02:53:29.720Z,1035.00
2023-02-13T02:54:10.772Z,1034.96
2023-02-13T02:55:11.118Z,1034.97
2023-02-13T02:56:09.934Z,1035.01
2023-02-13T02:57:10.426Z,1034.95
2023-02-13T02:58:10.991Z,1034.94
2023-02-13T02:59:10.797Z,1034.95
2023-02-13T03:00:11.177Z,1034.94
2023-02-13T03:01:09.728Z,1034.98
2023-02-13T03:02:10.191Z,1034.97
2023-02-13T03:03:29.649Z,1034.95
2023-02-13T03:04:10.947Z,1034.94
2023-02-13T03:05:10.648Z,1034.91
2023-02-13T03:06:09.742Z,1034.95
2023-02-13T03:07:10.749Z,1034.91
2023-02-13T03:08:10.190Z,1034.91
2023-02-13T03:09:10.051Z,1034.92
2023-02-13T03:10:10.597Z,1034.86
2023-02-13T03:11:09.773Z,1034.88
2023-02-13T03:12:10.749Z,1034.85
2023-02-13T03:13:29.591Z,1034.86
2023-02-13T03:14:10.799Z,1034.87
2023-02-13T03:15:10.603Z,1034.85
2023-02-13T03:16:09.829Z,1034.86
2023-02-13T03:17:10.792Z,1034.86
2023-02-13T03:18:10.656Z,1034.93
2023-02-13T03:19:10.182Z,1034.89
2023-02-13T03:20:10.314Z,1034.89
2023-02-13T03:21:09.830Z,1034.91
2023-02-13T03:22:10.455Z,1034.98
2023-02-13T03:23:29.298Z,1035.02
2023-02-13T03:24:09.706Z,1034.93
2023-02-13T03:25:09.696Z,1034.97
2023-02-13T03:26:09.856Z,1034.96
2023-02-13T03:27:10.560Z,1034.96
2023-02-13T03:28:10.413Z,1034.94
2023-02-13T03:29:09.318Z,1034.88
2023-02-13T03:30:10.523Z,1034.91
2023-02-13T03:31:09.838Z,1034.86
2023-02-13T03:32:10.836Z,1034.85
2023-02-13T03:33:29.189Z,1034.87
2023-02-13T03:34:10.491Z,1034.87
2023-02-13T03:35:10.789Z,1034.88
2023-02-13T03:36:09.920Z,1034.88
2023-02-13T03:37:10.456Z,1034.87
2023-02-13T03:38:10.306Z,1034.89
2023-02-13T03:39:10.098Z,1034.90
2023-02-13T03:40:09.992Z,1034.89
2023-02-13T03:41:09.689Z,1034.88
2023-02-13T03:42:10.630Z,1034.83
2023-02-13T03:43:28.981Z,1034.88
2023-02-13T03:44:10.750Z,1034.88
2023-02-13T03:45:10.567Z,1034.90
2023-02-13T03:46:09.698Z,1034.93
2023-02-13T03:47:10.154Z,1034.95
2023-02-13T03:48:10.662Z,1034.97
2023-02-13T03:49:09.719Z,1035.00
2023-02-13T03:50:10.359Z,1034.95
2023-02-13T03:51:09.763Z,1034.98
2023-02-13T03:52:10.003Z,1034.97
2023-02-13T03:53:28.857Z,1034.97
2023-02-13T03:54:09.712Z,1034.99
2023-02-13T03:55:10.435Z,1035.01
2023-02-13T03:56:09.761Z,1034.99
2023-02-13T03:57:10.540Z,1034.98
2023-02-13T03:58:10.421Z,1034.99
2023-02-13T03:59:09.710Z,1034.99
2023-02-13T04:00:09.705Z,1035.00
2023-02-13T04:01:09.592Z,1035.01
2023-02-13T04:02:10.200Z,1035.05
2023-02-13T04:03:28.964Z,1035.08
2023-02-13T04:04:10.171Z,1035.01
2023-02-13T04:05:10.480Z,1035.03
2023-02-13T04:06:09.713Z,1035.08
2023-02-13T04:07:10.147Z,1035.04
2023-02-13T04:08:09.950Z,1035.09
2023-02-13T04:09:10.234Z,1035.07
2023-02-13T04:10:10.018Z,1035.07
2023-02-13T04:11:09.883Z,1035.09
2023-02-13T04:12:09.233Z,1035.10
2023-02-13T04:13:28.972Z,1035.05
2023-02-13T04:14:10.169Z,1035.09
2023-02-13T04:15:10.459Z,1035.06
2023-02-13T04:16:09.483Z,1035.05
2023-02-13T04:17:10.059Z,1035.07
2023-02-13T04:18:10.878Z,1035.09
2023-02-13T04:19:08.845Z,1035.07
2023-02-13T04:20:10.009Z,1035.08
2023-02-13T04:21:09.706Z,1035.07
2023-02-13T04:22:10.139Z,1035.03
2023-02-13T04:23:28.980Z,1035.05
2023-02-13T04:24:10.179Z,1035.07
2023-02-13T04:25:09.988Z,1035.04
2023-02-13T04:26:09.740Z,1035.03
2023-02-13T04:27:10.096Z,1035.02
2023-02-13T04:28:09.998Z,1035.04
2023-02-13T04:29:09.240Z,1034.99
2023-02-13T04:30:10.015Z,1034.95
2023-02-13T04:31:09.946Z,1034.98
2023-02-13T04:32:09.601Z,1034.99
2023-02-13T04:33:28.456Z,1034.94
2023-02-13T04:34:08.846Z,1034.95
2023-02-13T04:35:09.267Z,1034.91
2023-02-13T04:36:09.815Z,1034.91
2023-02-13T04:37:10.194Z,1034.90
2023-02-13T04:38:10.037Z,1034.89
2023-02-13T04:39:09.842Z,1034.88
2023-02-13T04:40:09.244Z,1034.92
2023-02-13T04:41:09.452Z,1034.87
2023-02-13T04:42:08.968Z,1034.93
2023-02-13T04:43:28.602Z,1034.91
2023-02-13T04:44:09.833Z,1034.91
2023-02-13T04:45:09.651Z,1034.91
2023-02-13T04:46:09.404Z,1034.88
2023-02-13T04:47:09.746Z,1034.89
2023-02-13T04:48:10.039Z,1034.90
2023-02-13T04:49:09.079Z,1034.91
2023-02-13T04:50:08.442Z,1034.87
2023-02-13T04:51:09.895Z,1034.84
2023-02-13T04:52:09.247Z,1034.88
2023-02-13T04:53:28.638Z,1034.92
2023-02-13T04:54:10.144Z,1034.91
2023-02-13T04:55:09.966Z,1034.90
2023-02-13T04:56:08.985Z,1034.87
2023-02-13T04:57:08.753Z,1034.84
2023-02-13T04:58:09.257Z,1034.84
2023-02-13T04:59:09.657Z,1034.89
2023-02-13T05:00:09.520Z,1034.87
2023-02-13T05:01:09.842Z,1034.87
2023-02-13T05:02:09.607Z,1034.88
2023-02-13T05:03:28.449Z,1034.81
2023-02-13T05:04:09.684Z,1034.85
2023-02-13T05:05:09.307Z,1034.82
2023-02-13T05:06:09.082Z,1034.82
2023-02-13T05:07:09.637Z,1034.81
2023-02-13T05:08:09.907Z,1034.81
2023-02-13T05:09:08.758Z,1034.81
2023-02-13T05:10:09.572Z,1034.81
2023-02-13T05:11:09.769Z,1034.80
2023-02-13T05:12:09.659Z,1034.80
2023-02-13T05:13:28.020Z,1034.79
2023-02-13T05:14:09.716Z,1034.76
2023-02-13T05:15:08.769Z,1034.75
2023-02-13T05:16:09.617Z,1034.79
2023-02-13T05:17:08.896Z,1034.78
2023-02-13T05:18:09.483Z,1034.77
2023-02-13T05:19:09.343Z,1034.78
2023-02-13T05:20:09.557Z,1034.79
2023-02-13T05:21:08.508Z,1034.78
2023-02-13T05:22:09.727Z,1034.80
2023-02-13T05:23:28.069Z,1034.82
2023-02-13T05:24:08.779Z,1034.86
2023-02-13T05:25:09.679Z,1034.87
2023-02-13T05:26:09.418Z,1034.91
2023-02-13T05:27:08.769Z,1034.84
2023-02-13T05:28:09.509Z,1034.91
2023-02-13T05:29:09.288Z,1034.94
2023-02-13T05:30:09.640Z,1034.89
2023-02-13T05:31:08.813Z,1034.94
2023-02-13T05:32:08.788Z,1034.90
2023-02-13T05:33:28.027Z,1034.89
2023-02-13T05:34:09.249Z,1034.86
2023-02-13T05:35:09.528Z,1034.94
2023-02-13T05:36:08.126Z,1034.95
2023-02-13T05:37:09.193Z,1034.95
2023-02-13T05:38:09.495Z,1034.93
2023-02-13T05:39:08.514Z,1034.95
2023-02-13T05:40:09.659Z,1034.94
2023-02-13T05:41:09.460Z,1034.95
2023-02-13T05:42:09.241Z,1034.92
2023-02-13T05:43:28.079Z,1034.93
2023-02-13T05:44:09.263Z,1034.96
2023-02-13T05:45:09.639Z,1034.93
2023-02-13T05:46:09.500Z,1034.98
2023-02-13T05:47:09.228Z,1035.02
2023-02-13T05:48:09.502Z,1035.04
2023-02-13T05:49:08.294Z,1035.08
2023-02-13T05:50:09.093Z,1035.02
2023-02-13T05:51:08.998Z,1035.09
2023-02-13T05:52:09.245Z,1034.99
2023-02-13T05:53:29.632Z,1035.02
2023-02-13T05:54:07.908Z,1035.04
2023-02-13T05:55:07.667Z,1035.05
2023-02-13T05:56:07.916Z,1035.08
2023-02-13T05:57:07.709Z,1035.03
2023-02-13T05:58:08.991Z,1035.06
2023-02-13T05:59:09.311Z,1035.05
2023-02-13T06:00:08.646Z,1035.02
2023-02-13T06:01:09.427Z,1034.99
2023-02-13T06:02:09.214Z,1034.93
2023-02-13T06:03:27.541Z,1035.02
2023-02-13T06:04:09.331Z,1034.96
2023-02-13T06:05:07.621Z,1035.01
2023-02-13T06:06:08.289Z,1034.97
2023-02-13T06:07:08.413Z,1034.96
2023-02-13T06:08:09.006Z,1034.95
2023-02-13T06:09:09.278Z,1034.92
2023-02-13T06:10:08.569Z,1034.95
2023-02-13T06:11:08.797Z,1034.93
2023-02-13T06:12:08.283Z,1034.95
2023-02-13T06:13:27.540Z,1034.93
2023-02-13T06:14:07.832Z,1034.95
2023-02-13T06:15:09.127Z,1034.90
2023-02-13T06:16:08.951Z,1034.97
2023-02-13T06:17:08.301Z,1034.94
2023-02-13T06:18:09.050Z,1034.96
2023-02-13T06:19:08.870Z,1034.97
2023-02-13T06:20:08.386Z,1034.94
2023-02-13T06:21:08.548Z,1034.96
2023-02-13T06:22:08.864Z,1034.92
2023-02-13T06:23:27.681Z,1034.92
2023-02-13T06:24:08.717Z,1034.91
2023-02-13T06:25:07.528Z,1034.91
2023-02-13T06:26:07.298Z,1034.91
2023-02-13T06:27:08.134Z,1034.90
2023-02-13T06:28:06.812Z,1034.87
2023-02-13T06:29:07.441Z,1034.92
2023-02-13T06:30:07.190Z,1034.90
2023-02-13T06:31:07.568Z,1034.93
2023-02-13T06:32:07.198Z,1034.87
2023-02-13T06:33:27.478Z,1034.89
2023-02-13T06:34:07.186Z,1034.91
2023-02-13T06:35:07.457Z,1034.91
2023-02-13T06:36:07.227Z,1034.95
2023-02-13T06:37:07.458Z,1034.97
2023-02-13T06:38:07.223Z,1035.01
2023-02-13T06:39:07.472Z,1034.96
2023-02-13T06:40:07.236Z,1034.96
2023-02-13T06:41:07.530Z,1034.92
2023-02-13T06:42:07.257Z,1035.01
2023-02-13T06:43:27.535Z,1035.00
2023-02-13T06:44:07.286Z,1034.99
2023-02-13T06:45:07.035Z,1034.98
2023-02-13T06:46:07.297Z,1034.98
2023-02-13T06:47:07.533Z,1034.95
2023-02-13T06:48:08.260Z,1034.95
2023-02-13T06:49:07.038Z,1034.96
2023-02-13T06:50:08.322Z,1034.97
2023-02-13T06:51:07.118Z,1034.97
2023-02-13T06:52:07.354Z,1035.00
2023-02-13T06:53:27.120Z,1034.96
2023-02-13T06:54:07.365Z,1034.95
2023-02-13T06:55:06.503Z,1034.98
2023-02-13T06:56:06.445Z,1034.99
2023-02-13T06:57:06.398Z,1035.01
2023-02-13T06:58:06.426Z,1034.95
2023-02-13T06:59:06.425Z,1034.98
2023-02-13T07:00:07.181Z,1035.03
2023-02-13T07:01:06.531Z,1035.03
2023-02-13T07:02:06.366Z,1035.04
2023-02-13T07:03:27.111Z,1035.05
2023-02-13T07:04:06.865Z,1035.11
2023-02-13T07:05:07.135Z,1035.13
2023-02-13T07:06:06.349Z,1035.13
2023-02-13T07:07:07.006Z,1035.16
2023-02-13T07:08:07.768Z,1035.20
2023-02-13T07:09:06.270Z,1035.17
2023-02-13T07:10:07.728Z,1035.17
2023-02-13T07:11:06.319Z,1035.18
2023-02-13T07:12:06.265Z,1035.19
2023-02-13T07:13:26.286Z,1035.18
2023-02-13T07:14:06.232Z,1035.18
2023-02-13T07:15:06.213Z,1035.15
2023-02-13T07:16:06.895Z,1035.16
2023-02-13T07:17:06.219Z,1035.20
2023-02-13T07:18:07.654Z,1035.18
2023-02-13T07:19:07.622Z,1035.19
2023-02-13T07:20:07.620Z,1035.19
2023-02-13T07:21:06.170Z,1035.18
2023-02-13T07:22:06.210Z,1035.22
2023-02-13T07:23:26.182Z,1035.18
2023-02-13T07:24:07.975Z,1035.12
2023-02-13T07:25:06.122Z,1035.17
2023-02-13T07:26:06.116Z,1035.09
2023-02-13T07:27:06.139Z,1035.11
2023-02-13T07:28:06.155Z,1035.10
2023-02-13T07:29:11.781Z,1035.12
2023-02-13T07:30:07.866Z,1035.13
2023-02-13T07:31:06.768Z,1035.10
2023-02-13T07:32:07.037Z,1035.13
2023-02-13T07:33:27.111Z,1035.12
2023-02-13T07:34:06.909Z,1035.10
2023-02-13T07:35:06.679Z,1035.11
2023-02-13T07:36:06.903Z,1035.16
2023-02-13T07:37:06.643Z,1035.16
2023-02-13T07:38:06.883Z,1035.13
2023-02-13T07:39:06.648Z,1035.13
2023-02-13T07:40:06.882Z,1035.14
2023-02-13T07:41:06.665Z,1035.17
2023-02-13T07:42:06.897Z,1035.21
2023-02-13T07:43:26.683Z,1035.16
2023-02-13T07:44:07.867Z,1035.19
2023-02-13T07:45:07.611Z,1035.15
2023-02-13T07:46:06.899Z,1035.18
2023-02-13T07:47:06.727Z,1035.17
2023-02-13T07:48:07.011Z,1035.17
2023-02-13T07:49:08.710Z,1035.15
2023-02-13T07:50:07.898Z,1035.13
2023-02-13T07:51:08.214Z,1035.07
2023-02-13T07:52:08.640Z,1035.14
2023-02-13T07:53:26.415Z,1035.11
2023-02-13T07:54:07.708Z,1035.10
2023-02-13T07:55:08.495Z,1035.11
2023-02-13T07:56:06.837Z,1035.12
2023-02-13T07:57:07.930Z,1035.10
2023-02-13T07:58:07.790Z,1035.04
2023-02-13T07:59:08.119Z,1035.09
2023-02-13T08:00:07.870Z,1035.07
2023-02-13T08:01:07.374Z,1035.12
2023-02-13T08:02:07.481Z,1035.11
2023-02-13T08:03:26.843Z,1035.10
2023-02-13T08:04:08.002Z,1035.12
2023-02-13T08:05:07.746Z,1035.11
2023-02-13T08:06:06.791Z,1035.17
2023-02-13T08:07:08.868Z,1035.09
2023-02-13T08:08:07.605Z,1035.12
2023-02-13T08:09:07.503Z,1035.14
2023-02-13T08:10:07.795Z,1035.18
2023-02-13T08:11:07.564Z,1035.19
2023-02-13T08:12:07.356Z,1035.22
2023-02-13T08:13:26.679Z,1035.26
2023-02-13T08:14:07.792Z,1035.18
2023-02-13T08:15:07.561Z,1035.16
2023-02-13T08:16:07.236Z,1035.25
2023-02-13T08:17:06.294Z,1035.23
2023-02-13T08:18:08.086Z,1035.22
2023-02-13T08:19:08.364Z,1035.21
2023-02-13T08:20:06.210Z,1035.21
2023-02-13T08:21:06.504Z,1035.22
2023-02-13T08:22:07.699Z,1035.22
2023-02-13T08:23:26.606Z,1035.27
2023-02-13T08:24:07.356Z,1035.30
2023-02-13T08:25:07.612Z,1035.33
2023-02-13T08:26:07.399Z,1035.24
2023-02-13T08:27:07.141Z,1035.32
2023-02-13T08:28:07.485Z,1035.35
2023-02-13T08:29:07.703Z,1035.34
2023-02-13T08:30:06.993Z,1035.39
2023-02-13T08:31:10.115Z,1035.38
2023-02-13T08:32:07.664Z,1035.33
2023-02-13T08:33:26.376Z,1035.41
2023-02-13T08:34:07.076Z,1035.42
2023-02-13T08:35:07.409Z,1035.41
2023-02-13T08:36:06.840Z,1035.34
2023-02-13T08:37:07.972Z,1035.36
2023-02-13T08:38:07.785Z,1035.38
2023-02-13T08:39:07.463Z,1035.37
2023-02-13T08:40:07.387Z,1035.39
2023-02-13T08:41:07.204Z,1035.35
2023-02-13T08:42:06.980Z,1035.35
2023-02-13T08:43:26.314Z,1035.45
2023-02-13T08:44:07.520Z,1035.43
2023-02-13T08:45:07.679Z,1035.44
2023-02-13T08:46:07.267Z,1035.45
2023-02-13T08:47:06.847Z,1035.45
2023-02-13T08:48:07.138Z,1035.43
2023-02-13T08:49:06.942Z,1035.47
2023-02-13T08:50:07.751Z,1035.44
2023-02-13T08:51:08.083Z,1035.44
2023-02-13T08:52:07.346Z,1035.45
2023-02-13T08:53:26.148Z,1035.47
2023-02-13T08:54:06.179Z,1035.41
2023-02-13T08:55:06.222Z,1035.43
2023-02-13T08:56:07.018Z,1035.43
2023-02-13T08:57:06.682Z,1035.42
2023-02-13T08:58:06.845Z,1035.42
2023-02-13T08:59:07.877Z,1035.40
2023-02-13T09:00:07.700Z,1035.38
2023-02-13T09:01:07.464Z,1035.37
2023-02-13T09:02:07.122Z,1035.36
2023-02-13T09:03:26.029Z,1035.36
2023-02-13T09:04:05.832Z,1035.30
2023-02-13T09:05:07.503Z,1035.28
2023-02-13T09:06:07.401Z,1035.31
2023-02-13T09:07:05.700Z,1035.28
2023-02-13T09:08:06.897Z,1035.32
2023-02-13T09:09:07.681Z,1035.31
2023-02-13T09:10:07.144Z,1035.34
2023-02-13T09:11:07.328Z,1035.30
2023-02-13T09:12:07.592Z,1035.27
2023-02-13T09:13:25.891Z,1035.25
2023-02-13T09:14:07.593Z,1035.27
2023-02-13T09:15:07.869Z,1035.32
2023-02-13T09:16:06.787Z,1035.30
2023-02-13T09:17:08.023Z,1035.33
2023-02-13T09:18:06.740Z,1035.30
2023-02-13T09:19:06.489Z,1035.31
2023-02-13T09:20:07.771Z,1035.27
2023-02-13T09:21:07.067Z,1035.32
2023-02-13T09:22:05.936Z,1035.25
2023-02-13T09:23:25.693Z,1035.22
2023-02-13T09:24:07.912Z,1035.24
2023-02-13T09:25:06.763Z,1035.23
2023-02-13T09:26:07.020Z,1035.28
2023-02-13T09:27:07.864Z,1035.32
2023-02-13T09:28:05.617Z,1035.26
2023-02-13T09:29:07.318Z,1035.27
2023-02-13T09:30:07.593Z,1035.25
2023-02-13T09:31:07.135Z,1035.21
2023-02-13T09:32:07.771Z,1035.22
2023-02-13T09:33:25.494Z,1035.22
2023-02-13T09:34:07.721Z,1035.21
2023-02-13T09:35:06.972Z,1035.17
2023-02-13T09:36:06.404Z,1035.25
2023-02-13T09:37:10.646Z,1035.24
2023-02-13T09:38:07.416Z,1035.12
2023-02-13T09:39:07.696Z,1035.19
2023-02-13T10:43:21.422Z,1035.17
2023-02-13T10:43:26.199Z,1034.42
2023-02-13T12:30:58.498Z,1034.39
2023-02-13T12:31:25.895Z,1033.17
2023-02-13T12:32:04.180Z,1033.21
2023-02-13T12:33:04.900Z,1033.20
2023-02-13T12:34:05.137Z,1033.24
2023-02-13T12:38:20.476Z,1033.27
2023-02-13T12:38:26.761Z,1033.28
2023-02-13T12:39:27.087Z,1033.34
2023-02-13T12:40:27.406Z,1033.05
2023-02-13T12:41:27.824Z,1033.01
2023-02-13T12:42:27.601Z,1033.04
2023-02-13T12:43:45.937Z,1033.00
2023-02-13T12:44:27.189Z,1032.97
2023-02-13T12:45:27.523Z,1033.06
2023-02-13T12:46:27.344Z,1032.97
2023-02-13T12:47:27.630Z,1032.95
2023-02-13T12:48:27.439Z,1032.99
2023-02-13T12:49:26.985Z,1033.00
2023-02-13T12:50:28.552Z,1032.93
2023-02-13T12:51:26.706Z,1032.96
2023-02-13T12:52:27.489Z,1032.96
2023-02-13T12:53:45.809Z,1032.92
2023-02-13T12:54:26.491Z,1032.97
2023-02-13T12:55:25.947Z,1032.93
2023-02-13T12:56:26.748Z,1032.97
2023-02-13T12:57:27.543Z,1032.92
2023-02-13T12:58:25.235Z,1032.90
2023-02-13T12:59:28.557Z,1032.95
2023-02-13T13:00:25.482Z,1032.91
2023-02-13T13:01:27.427Z,1032.90
2023-02-13T13:02:27.356Z,1032.96
2023-02-13T13:03:45.580Z,1032.95
2023-02-13T13:04:27.340Z,1032.94
2023-02-13T13:05:26.652Z,1032.91
2023-02-13T13:06:26.049Z,1032.94
2023-02-13T13:07:27.313Z,1032.90
2023-02-13T13:08:27.104Z,1032.89
2023-02-13T13:09:27.384Z,1032.90
2023-02-13T13:10:26.401Z,1032.89
2023-02-13T13:11:26.983Z,1032.86
2023-02-13T13:12:26.489Z,1032.87
2023-02-13T13:13:45.657Z,1032.88
2023-02-13T13:14:26.995Z,1032.93
2023-02-13T13:15:27.241Z,1032.87
2023-02-13T13:16:27.084Z,1032.92
2023-02-13T13:17:26.487Z,1032.94
2023-02-13T13:18:26.486Z,1032.92
2023-02-13T13:19:27.005Z,1032.91
2023-02-13T13:20:27.309Z,1032.92
2023-02-13T13:21:27.087Z,1032.94
2023-02-13T13:22:26.964Z,1032.91
2023-02-13T13:23:45.801Z,1032.93
2023-02-13T13:24:27.013Z,1032.92
2023-02-13T13:25:26.795Z,1032.91
2023-02-13T13:26:27.131Z,1032.96
2023-02-13T13:27:25.534Z,1032.92
2023-02-13T13:28:26.753Z,1032.89
2023-02-13T13:29:25.992Z,1032.85
2023-02-13T13:30:26.121Z,1032.86
2023-02-13T13:31:27.293Z,1032.87
2023-02-13T13:32:27.009Z,1032.84
2023-02-13T13:33:45.308Z,1032.78
2023-02-13T13:34:27.035Z,1032.82
2023-02-13T13:35:26.005Z,1032.76
2023-02-13T13:36:26.349Z,1032.77
2023-02-13T13:37:26.902Z,1032.77
2023-02-13T13:38:26.732Z,1032.76
2023-02-13T13:39:27.041Z,1032.77
2023-02-13T13:40:26.844Z,1032.75
2023-02-13T13:41:26.012Z,1032.74
2023-02-13T13:42:26.941Z,1032.71
2023-02-13T13:43:45.254Z,1032.68
2023-02-13T13:44:26.525Z,1032.74
2023-02-13T13:45:26.801Z,1032.70
2023-02-13T13:46:26.721Z,1032.72
2023-02-13T13:47:26.009Z,1032.67
2023-02-13T13:48:26.758Z,1032.65
2023-02-13T13:49:26.201Z,1032.74
2023-02-13T13:50:26.250Z,1032.73
2023-02-13T13:51:26.783Z,1032.70
2023-02-13T13:52:26.095Z,1032.66
2023-02-13T13:53:45.411Z,1032.69
2023-02-13T13:54:26.628Z,1032.70
2023-02-13T13:55:25.563Z,1032.68
2023-02-13T13:56:26.846Z,1032.65
2023-02-13T13:57:25.192Z,1032.66
2023-02-13T13:58:26.868Z,1032.66
2023-02-13T13:59:26.020Z,1032.65
2023-02-13T14:00:26.556Z,1032.66
2023-02-13T14:01:26.141Z,1032.68
2023-02-13T14:02:26.737Z,1032.69
2023-02-13T14:03:44.984Z,1032.67
2023-02-13T14:04:26.011Z,1032.64
2023-02-13T14:05:25.204Z,1032.68
2023-02-13T14:06:25.933Z,1032.64
2023-02-13T14:07:26.264Z,1032.63
2023-02-13T14:08:26.557Z,1032.66
2023-02-13T14:09:26.404Z,1032.61
2023-02-13T14:10:25.523Z,1032.64
2023-02-13T14:11:26.018Z,1032.64
2023-02-13T14:12:26.313Z,1032.63
2023-02-13T14:13:45.153Z,1032.63
2023-02-13T14:14:26.427Z,1032.67
2023-02-13T14:15:26.737Z,1032.64
2023-02-13T14:16:25.537Z,1032.64
2023-02-13T14:17:26.364Z,1032.67
2023-02-13T14:18:26.645Z,1032.67
2023-02-13T14:19:26.517Z,1032.66
2023-02-13T14:20:26.337Z,1032.71
2023-02-13T14:21:25.518Z,1032.70
2023-02-13T14:22:26.426Z,1032.63
2023-02-13T14:23:44.775Z,1032.64
2023-02-13T14:24:25.702Z,1032.63
2023-02-13T14:25:26.355Z,1032.60
2023-02-13T14:26:24.744Z,1032.61
2023-02-13T14:27:25.525Z,1032.57
2023-02-13T14:28:26.266Z,1032.57
2023-02-13T14:29:26.570Z,1032.55
2023-02-13T14:30:26.504Z,1032.55
2023-02-13T14:31:26.319Z,1032.55
2023-02-13T14:32:26.580Z,1032.53
2023-02-13T14:33:44.903Z,1032.58
2023-02-13T14:34:26.124Z,1032.57
2023-02-13T14:35:26.423Z,1032.59
2023-02-13T14:36:26.288Z,1032.62
2023-02-13T14:37:26.080Z,1032.64
2023-02-13T14:38:26.383Z,1032.65
2023-02-13T14:39:25.534Z,1032.65
2023-02-13T14:40:26.551Z,1032.62
2023-02-13T14:41:26.333Z,1032.63
2023-02-13T14:42:24.716Z,1032.62
2023-02-13T14:43:44.952Z,1032.60
2023-02-13T14:44:25.559Z,1032.65
2023-02-13T14:45:25.135Z,1032.60
2023-02-13T14:46:26.405Z,1032.63
2023-02-13T14:47:26.225Z,1032.59
2023-02-13T14:48:26.063Z,1032.62
2023-02-13T14:49:26.336Z,1032.61
2023-02-13T14:50:25.554Z,1032.58
2023-02-13T14:51:25.539Z,1032.59
2023-02-13T14:52:25.850Z,1032.59
2023-02-13T14:53:44.682Z,1032.55
2023-02-13T14:54:25.948Z,1032.53
2023-02-13T14:55:25.452Z,1032.52